createdAt,value
2018-12-21T00:00:37.900Z,707.73
2018-12-21T00:03:05.823Z,594.95
2018-12-21T00:05:33.831Z,576.45
2018-12-21T00:08:01.820Z,592.50
2018-12-21T00:10:29.812Z,803.80
2018-12-21T00:12:57.845Z,677.92
2018-12-21T00:15:25.875Z,620.85
2018-12-21T00:17:53.991Z,509.70
2018-12-21T00:20:21.957Z,529.15
2018-12-21T00:22:49.874Z,672.63
2018-12-21T00:25:17.962Z,533.55
2018-12-21T00:27:45.914Z,561.90
2018-12-21T00:30:18.369Z,796.27
2018-12-21T00:32:51.903Z,489.78
2018-12-21T00:35:25.346Z,480.95
2018-12-21T00:37:58.742Z,414.52
2018-12-21T00:40:32.068Z,536.35
2018-12-21T00:44:06.310Z,463.68
2018-12-21T00:46:38.794Z,385.05
2018-12-21T00:49:06.775Z,372.60
2018-12-21T00:51:34.685Z,392.00
2018-12-21T00:54:02.610Z,382.60
2018-12-21T00:56:30.561Z,511.17
2018-12-21T00:58:58.497Z,406.00
2018-12-21T01:01:28.627Z,227.50
2018-12-21T01:03:56.598Z,297.82
2018-12-21T01:06:24.579Z,292.90
2018-12-21T01:08:52.564Z,525.98
2018-12-21T01:11:20.533Z,373.23
2018-12-21T01:13:49.646Z,258.57
2018-12-21T01:16:17.778Z,324.02
2018-12-21T01:18:45.722Z,241.88
2018-12-21T01:21:13.686Z,252.15
2018-12-21T01:23:41.617Z,389.08
2018-12-21T01:26:09.522Z,395.33
2018-12-21T01:28:37.494Z,327.68
2018-12-21T01:31:05.417Z,309.32
2018-12-21T01:33:33.378Z,226.73
2018-12-21T01:36:01.330Z,190.73
2018-12-21T01:38:29.286Z,180.03
2018-12-21T01:40:57.194Z,484.52
2018-12-21T01:43:25.174Z,458.53
2018-12-21T01:45:53.098Z,749.27
2018-12-21T01:48:22.167Z,209.98
2018-12-21T01:50:50.093Z,289.82
2018-12-21T01:53:17.982Z,433.42
2018-12-21T01:55:45.933Z,149.20
2018-12-21T01:58:13.870Z,184.48
2018-12-21T02:00:41.815Z,289.57
2018-12-21T02:03:09.764Z,215.95
2018-12-21T02:05:37.726Z,365.35
2018-12-21T02:08:05.724Z,290.35
2018-12-21T02:10:33.693Z,201.27
2018-12-21T02:13:01.775Z,316.38
2018-12-21T02:15:30.814Z,311.37
2018-12-21T02:17:58.740Z,265.75
2018-12-21T02:20:26.850Z,258.52
2018-12-21T02:22:54.779Z,198.40
2018-12-21T02:25:22.755Z,249.15
2018-12-21T02:27:50.686Z,167.55
2018-12-21T02:30:18.743Z,169.87
2018-12-21T02:32:46.682Z,440.52
2018-12-21T02:35:14.623Z,207.57
2018-12-21T02:37:42.561Z,179.68
2018-12-21T02:40:10.546Z,125.70
2018-12-21T02:42:38.556Z,117.55
2018-12-21T02:45:07.014Z,123.50
2018-12-21T02:47:34.980Z,122.55
2018-12-21T02:50:02.944Z,107.47
2018-12-21T02:52:30.915Z,110.17
2018-12-21T02:54:58.839Z,118.60
2018-12-21T02:57:26.780Z,120.28
2018-12-21T02:59:54.658Z,124.38
2018-12-21T03:02:22.621Z,108.10
2018-12-21T03:04:50.541Z,121.47
2018-12-21T03:07:18.498Z,128.32
2018-12-21T03:09:46.447Z,120.62
2018-12-21T03:12:14.394Z,130.82
2018-12-21T03:14:42.426Z,120.02
2018-12-21T03:17:10.382Z,121.07
2018-12-21T03:19:38.313Z,129.50
2018-12-21T03:22:14.304Z,237.53
2018-12-21T03:24:36.239Z,328.32
2018-12-21T03:27:04.263Z,515.40
2018-12-21T03:29:32.181Z,312.95
2018-12-21T03:32:00.283Z,340.77
2018-12-21T03:34:28.298Z,445.45
2018-12-21T03:36:56.366Z,274.15
2018-12-21T03:39:24.334Z,411.92
2018-12-21T03:41:52.286Z,398.80
2018-12-21T03:44:20.285Z,345.95
2018-12-21T03:46:48.293Z,390.55
2018-12-21T03:49:16.212Z,267.82
2018-12-21T03:51:44.157Z,356.40
2018-12-21T03:54:12.068Z,337.32
2018-12-21T03:56:40.088Z,372.58
2018-12-21T03:59:08.092Z,382.55
2018-12-21T04:01:36.139Z,394.70
2018-12-21T04:04:04.133Z,361.23
2018-12-21T04:06:32.089Z,388.02
2018-12-21T04:09:00.099Z,273.80
2018-12-21T04:11:28.029Z,476.75
2018-12-21T04:13:55.995Z,623.92
2018-12-21T04:16:23.946Z,274.65
2018-12-21T04:18:51.963Z,348.38
2018-12-21T04:21:19.901Z,461.32
2018-12-21T04:23:47.906Z,418.97
2018-12-21T04:26:15.808Z,501.15
2018-12-21T04:28:43.754Z,360.98
2018-12-21T04:31:11.677Z,265.15
2018-12-21T04:33:39.619Z,350.27
2018-12-21T04:36:07.564Z,290.90
2018-12-21T04:38:35.516Z,264.17
2018-12-21T04:41:03.444Z,283.05
2018-12-21T04:43:31.409Z,328.18
2018-12-21T04:45:59.442Z,386.02
2018-12-21T04:48:27.535Z,469.85
2018-12-21T04:50:55.541Z,321.70
2018-12-21T04:53:23.484Z,241.57
2018-12-21T04:55:51.422Z,253.12
2018-12-21T04:58:19.353Z,357.45
2018-12-21T05:00:47.371Z,213.20
2018-12-21T05:03:15.458Z,254.90
2018-12-21T05:05:43.376Z,265.65
2018-12-21T05:08:11.346Z,446.22
2018-12-21T05:10:39.285Z,210.55
2018-12-21T05:13:07.206Z,185.82
2018-12-21T05:15:35.226Z,198.57
2018-12-21T05:18:03.418Z,286.18
2018-12-21T05:20:31.418Z,372.98
2018-12-21T05:22:59.391Z,294.67
2018-12-21T05:25:27.340Z,265.10
2018-12-21T05:27:55.362Z,296.55
2018-12-21T05:30:23.331Z,269.32
2018-12-21T05:32:51.237Z,361.37
2018-12-21T05:35:19.189Z,249.35
2018-12-21T05:37:47.126Z,275.22
2018-12-21T05:40:15.091Z,214.38
2018-12-21T05:42:43.006Z,209.72
2018-12-21T05:45:10.930Z,233.30
2018-12-21T05:47:38.851Z,257.23
2018-12-21T05:50:06.814Z,246.85
2018-12-21T05:52:34.754Z,190.57
2018-12-21T05:55:02.962Z,281.23
2018-12-21T05:57:30.891Z,201.35
2018-12-21T05:59:58.881Z,143.17
2018-12-21T06:02:26.821Z,200.28
2018-12-21T06:04:54.733Z,195.87
2018-12-21T06:07:22.706Z,320.77
2018-12-21T06:09:50.635Z,341.65
2018-12-21T06:12:18.562Z,228.75
2018-12-21T06:14:46.560Z,252.35
2018-12-21T06:17:14.504Z,300.82
2018-12-21T06:19:42.498Z,253.65
2018-12-21T06:22:10.475Z,244.07
2018-12-21T06:24:38.428Z,176.37
2018-12-21T06:27:06.392Z,281.43
2018-12-21T06:29:34.402Z,271.73
2018-12-21T06:32:02.356Z,221.25
2018-12-21T06:34:30.279Z,227.28
2018-12-21T06:36:58.199Z,189.25
2018-12-21T06:39:26.123Z,153.85
2018-12-21T06:41:54.064Z,201.25
2018-12-21T06:44:22.110Z,190.12
2018-12-21T06:46:50.043Z,192.10
2018-12-21T06:49:17.998Z,291.45
2018-12-21T06:51:45.939Z,236.82
2018-12-21T06:54:13.845Z,138.15
2018-12-21T06:56:41.791Z,129.03
2018-12-21T06:59:09.788Z,144.43
2018-12-21T07:01:37.701Z,224.75
2018-12-21T07:04:05.666Z,132.30
2018-12-21T07:06:34.685Z,284.70
2018-12-21T07:09:03.280Z,234.80
2018-12-21T07:11:31.208Z,118.90
2018-12-21T07:13:59.180Z,127.90
2018-12-21T07:16:27.106Z,115.15
2018-12-21T07:18:55.044Z,145.53
2018-12-21T07:21:23.072Z,124.82
2018-12-21T07:23:51.019Z,189.87
2018-12-21T07:26:19.058Z,173.28
2018-12-21T07:28:46.999Z,156.00
2018-12-21T07:31:14.958Z,129.03
2018-12-21T07:33:42.953Z,124.50
2018-12-21T07:36:10.873Z,128.57
2018-12-21T07:38:38.809Z,182.30
2018-12-21T07:41:06.778Z,164.85
2018-12-21T07:43:34.754Z,177.38
2018-12-21T07:46:02.772Z,260.43
2018-12-21T07:48:30.733Z,186.67
2018-12-21T07:51:05.726Z,133.55
2018-12-21T07:53:35.917Z,118.90
2018-12-21T07:56:03.729Z,128.75
2018-12-21T07:58:31.689Z,155.72
2018-12-21T08:00:59.638Z,161.32
2018-12-21T08:03:28.489Z,145.07
2018-12-21T08:05:56.425Z,121.05
2018-12-21T08:08:24.751Z,106.27
2018-12-21T08:10:55.709Z,127.78
2018-12-21T08:13:23.662Z,116.67
2018-12-21T08:15:51.665Z,105.07
2018-12-21T08:18:19.653Z,102.30
2018-12-21T08:20:47.665Z,115.35
2018-12-21T08:23:15.660Z,107.63
2018-12-21T08:25:43.648Z,103.55
2018-12-21T08:28:11.554Z,116.30
2018-12-21T08:30:39.503Z,84.07
2018-12-21T08:33:07.562Z,125.65
2018-12-21T08:35:35.509Z,92.70
2018-12-21T08:38:03.482Z,80.95
2018-12-21T08:40:31.464Z,74.50
2018-12-21T08:42:59.421Z,77.97
2018-12-21T08:45:27.360Z,89.32
2018-12-21T08:47:55.315Z,82.27
2018-12-21T08:50:23.243Z,89.58
2018-12-21T08:52:51.274Z,79.35
2018-12-21T08:55:19.260Z,74.25
2018-12-21T08:57:47.191Z,79.40
2018-12-21T09:00:15.149Z,75.40
2018-12-21T09:02:44.301Z,75.12
2018-12-21T09:05:12.290Z,72.95
2018-12-21T09:07:40.242Z,74.37
2018-12-21T09:10:09.186Z,69.47
2018-12-21T09:12:37.147Z,77.80
2018-12-21T09:15:06.149Z,70.55
2018-12-21T09:17:34.146Z,70.57
2018-12-21T09:20:02.126Z,66.62
2018-12-21T09:22:30.110Z,63.92
2018-12-21T09:24:58.126Z,64.45
2018-12-21T09:27:26.143Z,66.12
2018-12-21T09:29:54.071Z,63.68
2018-12-21T09:32:22.093Z,62.48
2018-12-21T09:34:50.058Z,59.08
2018-12-21T09:37:18.001Z,61.50
2018-12-21T09:39:47.089Z,60.30
2018-12-21T09:42:15.021Z,56.03
2018-12-21T09:44:43.049Z,60.63
2018-12-21T09:47:11.025Z,60.33
2018-12-21T09:49:38.947Z,56.63
2018-12-21T09:52:06.954Z,64.60
2018-12-21T09:54:35.115Z,62.03
2018-12-21T09:57:03.056Z,61.60
2018-12-21T09:59:31.030Z,65.17
2018-12-21T10:01:58.968Z,59.83
2018-12-21T10:04:26.970Z,54.77
2018-12-21T10:06:54.994Z,59.88
2018-12-21T10:09:22.953Z,59.90
2018-12-21T10:11:50.997Z,62.00
2018-12-21T10:14:18.962Z,62.88
2018-12-21T10:16:46.938Z,59.65
2018-12-21T10:19:14.916Z,62.55
2018-12-21T10:21:42.898Z,64.03
2018-12-21T10:24:18.250Z,65.28
2018-12-21T10:26:40.854Z,64.60
2018-12-21T10:29:08.804Z,63.28
2018-12-21T10:31:38.276Z,59.67
2018-12-21T10:34:06.503Z,62.03
2018-12-21T10:36:34.514Z,61.98
2018-12-21T10:39:03.582Z,66.60
2018-12-21T10:41:31.523Z,59.08
2018-12-21T10:43:59.522Z,63.92
2018-12-21T10:46:27.507Z,70.72
2018-12-21T10:48:55.456Z,68.42
2018-12-21T10:51:23.426Z,64.95
2018-12-21T10:53:51.436Z,73.55
2018-12-21T10:56:19.516Z,67.37
2018-12-21T10:58:47.565Z,67.35
2018-12-21T11:01:15.578Z,62.48
2018-12-21T11:03:43.545Z,62.30
2018-12-21T11:06:11.542Z,66.97
2018-12-21T11:08:39.478Z,60.28
2018-12-21T11:11:07.453Z,62.05
2018-12-21T11:13:35.410Z,68.40
2018-12-21T11:16:03.333Z,66.80
2018-12-21T11:18:31.326Z,66.75
2018-12-21T11:20:59.336Z,70.52
2018-12-21T11:23:27.310Z,73.05
2018-12-21T11:25:55.307Z,73.57
2018-12-21T11:28:25.531Z,69.87
2018-12-21T11:30:54.372Z,69.12
2018-12-21T11:33:22.303Z,70.80
2018-12-21T11:35:50.257Z,77.70
2018-12-21T11:38:18.254Z,69.53
2018-12-21T11:40:46.193Z,75.22
2018-12-21T11:43:14.149Z,69.95
2018-12-21T11:45:42.094Z,74.47
2018-12-21T11:48:10.034Z,81.17
2018-12-21T11:50:38.011Z,76.57
2018-12-21T11:53:06.106Z,70.70
2018-12-21T11:55:34.049Z,73.30
2018-12-21T11:58:02.027Z,74.30
2018-12-21T12:00:30.032Z,70.22
2018-12-21T12:02:57.977Z,79.42
2018-12-21T12:05:25.917Z,70.42
2018-12-21T12:07:53.879Z,70.65
2018-12-21T12:10:21.954Z,66.25
2018-12-21T12:12:49.980Z,73.33
2018-12-21T12:15:17.914Z,89.60
2018-12-21T12:17:45.881Z,87.95
2018-12-21T12:20:13.912Z,76.87
2018-12-21T12:22:41.890Z,81.22
2018-12-21T12:25:09.999Z,85.20
2018-12-21T12:27:37.963Z,84.67
2018-12-21T12:30:06.802Z,80.00
2018-12-21T12:32:34.846Z,75.80
2018-12-21T12:35:03.006Z,75.90
2018-12-21T12:37:31.191Z,78.15
2018-12-21T12:39:59.116Z,75.87
2018-12-21T12:42:27.039Z,79.42
2018-12-21T12:44:55.076Z,87.97
2018-12-21T12:47:23.026Z,70.17
2018-12-21T12:49:51.070Z,79.62
2018-12-21T12:52:19.100Z,71.20
2018-12-21T12:54:47.063Z,71.80
2018-12-21T12:57:16.166Z,73.17
2018-12-21T12:59:44.108Z,71.17
2018-12-21T13:02:12.092Z,78.65
2018-12-21T13:04:40.095Z,69.20
2018-12-21T13:07:08.090Z,68.55
2018-12-21T13:09:36.071Z,67.82
2018-12-21T13:12:04.033Z,67.25
2018-12-21T13:14:32.022Z,70.15
2018-12-21T13:16:59.970Z,72.58
2018-12-21T13:19:27.917Z,58.30
2018-12-21T13:21:55.875Z,70.03
2018-12-21T13:24:23.851Z,66.57
2018-12-21T13:26:51.872Z,66.85
2018-12-21T13:29:19.853Z,65.00
2018-12-21T13:31:47.862Z,65.65
2018-12-21T13:34:15.866Z,62.20
2018-12-21T13:36:43.823Z,60.60
2018-12-21T13:39:11.817Z,68.00
2018-12-21T13:41:39.890Z,64.87
2018-12-21T13:44:07.828Z,59.90
2018-12-21T13:46:35.807Z,60.03
2018-12-21T13:49:03.809Z,61.50
2018-12-21T13:51:31.750Z,65.85
2018-12-21T13:53:59.716Z,60.60
2018-12-21T13:56:27.712Z,58.70
2018-12-21T13:58:55.654Z,59.38
2018-12-21T14:01:23.694Z,53.98
2018-12-21T14:03:51.671Z,64.25
2018-12-21T14:06:19.619Z,52.67
2018-12-21T14:08:47.565Z,58.17
2018-12-21T14:11:15.587Z,54.20
2018-12-21T14:13:43.566Z,59.80
2018-12-21T14:16:11.502Z,54.88
2018-12-21T14:18:39.459Z,60.75
2018-12-21T14:21:07.389Z,54.48
2018-12-21T14:23:35.374Z,51.18
2018-12-21T14:26:03.350Z,54.25
2018-12-21T14:28:31.371Z,52.17
2018-12-21T14:30:59.346Z,50.63
2018-12-21T14:33:27.396Z,56.02
2018-12-21T14:35:55.364Z,47.88
2018-12-21T14:38:23.355Z,52.05
2018-12-21T14:40:51.285Z,57.25
2018-12-21T14:43:19.298Z,50.70
2018-12-21T14:45:47.301Z,52.85
2018-12-21T14:48:15.304Z,57.00
2018-12-21T14:50:43.251Z,53.60
2018-12-21T14:53:11.236Z,56.75
2018-12-21T14:55:39.207Z,54.27
2018-12-21T14:58:07.162Z,60.10
2018-12-21T15:00:35.106Z,53.90
2018-12-21T15:03:04.174Z,56.55
2018-12-21T15:05:32.158Z,55.85
2018-12-21T15:08:00.131Z,56.73
2018-12-21T15:10:28.047Z,58.23
2018-12-21T15:12:56.090Z,67.17
2018-12-21T15:15:24.169Z,53.65
2018-12-21T15:17:52.182Z,53.25
2018-12-21T15:20:20.236Z,58.90
2018-12-21T15:22:48.259Z,54.50
2018-12-21T15:25:16.255Z,55.63
2018-12-21T15:27:44.291Z,54.85
2018-12-21T15:30:12.334Z,56.80
2018-12-21T15:32:40.361Z,53.70
2018-12-21T15:35:08.408Z,51.33
2018-12-21T15:37:36.408Z,56.00
2018-12-21T15:40:04.832Z,53.38
2018-12-21T15:42:32.811Z,59.90
2018-12-21T15:45:00.826Z,54.27
2018-12-21T15:47:28.820Z,58.40
2018-12-21T15:49:56.866Z,61.73
2018-12-21T15:52:25.115Z,53.95
2018-12-21T15:54:53.120Z,64.70
2018-12-21T15:57:21.115Z,56.63
2018-12-21T15:59:49.081Z,57.30
2018-12-21T16:02:17.319Z,53.42
2018-12-21T16:04:45.557Z,58.00
2018-12-21T16:07:13.577Z,59.25
2018-12-21T16:09:41.603Z,54.90
2018-12-21T16:12:10.724Z,68.85
2018-12-21T16:14:38.761Z,60.43
2018-12-21T16:17:06.771Z,57.65
2018-12-21T16:19:34.769Z,58.65
2018-12-21T16:22:02.793Z,52.78
2018-12-21T16:24:30.893Z,56.02
2018-12-21T16:26:58.923Z,58.30
2018-12-21T16:29:26.953Z,49.45
2018-12-21T16:31:54.986Z,53.60
2018-12-21T16:34:22.934Z,50.50
2018-12-21T16:36:50.925Z,57.25
2018-12-21T16:39:18.887Z,49.65
2018-12-21T16:41:46.898Z,55.52
2018-12-21T16:44:14.913Z,47.40
2018-12-21T16:46:42.935Z,50.00
2018-12-21T16:49:10.909Z,54.40
2018-12-21T16:51:38.925Z,55.73
2018-12-21T16:54:06.945Z,58.30
2018-12-21T16:56:34.920Z,56.65
2018-12-21T16:59:02.870Z,54.42
2018-12-21T17:01:30.895Z,59.60
2018-12-21T17:03:58.887Z,52.67
2018-12-21T17:06:26.945Z,60.05
2018-12-21T17:08:54.893Z,57.83
2018-12-21T17:11:22.927Z,60.55
2018-12-21T17:13:50.853Z,61.73
2018-12-21T17:16:18.827Z,54.20
2018-12-21T17:18:46.875Z,57.80
2018-12-21T17:21:14.910Z,65.67
2018-12-21T17:23:42.849Z,55.25
2018-12-21T17:26:10.810Z,56.58
2018-12-21T17:28:38.855Z,52.30
2018-12-21T17:31:06.784Z,62.03
2018-12-21T17:33:35.005Z,53.60
2018-12-21T17:36:02.983Z,51.20
2018-12-21T17:38:31.050Z,57.10
2018-12-21T17:40:58.989Z,65.80
2018-12-21T17:43:26.965Z,56.42
2018-12-21T17:45:54.975Z,60.92
2018-12-21T17:48:23.102Z,60.85
2018-12-21T17:50:51.062Z,67.75
2018-12-21T17:53:26.010Z,64.12
2018-12-21T17:55:54.060Z,58.08
2018-12-21T17:58:21.998Z,62.23
2018-12-21T18:00:49.987Z,64.47
2018-12-21T18:03:20.758Z,76.22
2018-12-21T18:05:48.711Z,72.27
2018-12-21T18:08:16.708Z,73.80
2018-12-21T18:10:44.736Z,74.42
2018-12-21T18:13:12.715Z,73.80
2018-12-21T18:15:40.676Z,72.20
2018-12-21T18:18:08.698Z,67.03
2018-12-21T18:20:36.638Z,73.65
2018-12-21T18:23:06.148Z,66.28
2018-12-21T18:25:35.305Z,79.75
2018-12-21T18:28:10.805Z,76.85
2018-12-21T18:30:38.612Z,77.87
2018-12-21T18:33:10.845Z,79.95
2018-12-21T18:35:37.313Z,76.80
2018-12-21T18:38:06.951Z,76.72
2018-12-21T18:40:34.988Z,73.62
2018-12-21T18:43:03.257Z,80.72
2018-12-21T18:45:31.274Z,72.17
2018-12-21T18:47:59.360Z,78.50
2018-12-21T18:50:27.921Z,74.40
2018-12-21T18:52:55.883Z,87.78
2018-12-21T18:55:23.868Z,82.02
2018-12-21T18:57:51.870Z,90.07
2018-12-21T19:00:19.916Z,92.75
2018-12-21T19:02:47.891Z,93.65
2018-12-21T19:05:15.827Z,94.62
2018-12-21T19:07:43.877Z,85.42
2018-12-21T19:10:12.946Z,87.53
2018-12-21T19:12:40.974Z,89.28
2018-12-21T19:15:10.535Z,95.45
2018-12-21T19:17:38.639Z,89.22
2018-12-21T19:20:08.826Z,89.62
2018-12-21T19:22:37.966Z,90.95
2018-12-21T19:25:06.973Z,97.10
2018-12-21T19:27:34.955Z,88.40
2018-12-21T19:30:04.785Z,88.72
2018-12-21T19:32:33.896Z,78.05
2018-12-21T19:35:01.903Z,94.05
2018-12-21T19:37:29.880Z,91.57
2018-12-21T19:39:59.563Z,95.80
2018-12-21T19:42:27.673Z,99.15
2018-12-21T19:44:55.649Z,90.53
2018-12-21T19:47:23.607Z,91.10
2018-12-21T19:49:51.573Z,84.28
2018-12-21T19:52:19.557Z,83.72
2018-12-21T19:54:49.659Z,80.25
2018-12-21T19:57:17.679Z,81.57
2018-12-21T19:59:45.663Z,82.40
2018-12-21T20:02:13.573Z,79.07
2018-12-21T20:04:41.497Z,73.02
2018-12-21T20:07:09.501Z,69.58
2018-12-21T20:09:37.433Z,75.00
2018-12-21T20:12:05.757Z,75.95
2018-12-21T20:14:33.839Z,69.03
2018-12-21T20:17:01.869Z,67.62
2018-12-21T20:19:29.903Z,76.42
2018-12-21T20:21:57.934Z,62.20
2018-12-21T20:24:29.606Z,68.78
2018-12-21T20:27:00.077Z,64.00
2018-12-21T20:29:28.042Z,64.10
2018-12-21T20:31:56.427Z,69.77
2018-12-21T20:34:24.429Z,70.10
2018-12-21T20:36:52.396Z,75.22
2018-12-21T20:39:22.500Z,72.78
2018-12-21T20:41:53.302Z,67.78
2018-12-21T20:44:21.249Z,65.52
2018-12-21T20:46:49.253Z,65.57
2018-12-21T20:49:17.272Z,61.90
2018-12-21T20:51:45.244Z,62.43
2018-12-21T20:54:13.209Z,63.08
2018-12-21T20:56:42.885Z,66.00
2018-12-21T20:59:12.469Z,61.65
2018-12-21T21:01:40.412Z,72.65
2018-12-21T21:04:08.354Z,66.80
2018-12-21T21:06:36.319Z,64.05
2018-12-21T21:09:05.372Z,77.85
2018-12-21T21:11:33.318Z,68.60
2018-12-21T21:14:01.332Z,71.37
2018-12-21T21:16:29.360Z,60.75
2018-12-21T21:18:57.333Z,75.50
2018-12-21T21:21:25.358Z,75.65
2018-12-21T21:23:53.320Z,74.27
2018-12-21T21:26:21.306Z,66.15
2018-12-21T21:28:49.237Z,63.98
2018-12-21T21:31:17.239Z,79.55
2018-12-21T21:33:45.584Z,78.20
2018-12-21T21:36:13.589Z,74.50
2018-12-21T21:38:41.567Z,85.10
2018-12-21T21:41:09.539Z,94.28
2018-12-21T21:43:37.497Z,98.78
2018-12-21T21:46:05.519Z,83.82
2018-12-21T21:48:33.512Z,83.67
2018-12-21T21:51:01.505Z,102.30
2018-12-21T21:53:29.480Z,87.33
2018-12-21T21:55:57.500Z,91.00
2018-12-21T21:58:25.422Z,95.00
2018-12-21T22:00:53.410Z,87.95
2018-12-21T22:03:21.377Z,92.62
2018-12-21T22:05:49.342Z,96.12
2018-12-21T22:08:17.322Z,72.80
2018-12-21T22:10:45.289Z,92.90
2018-12-21T22:13:13.215Z,82.70
2018-12-21T22:15:41.231Z,91.75
2018-12-21T22:18:09.406Z,97.67
2018-12-21T22:20:37.407Z,94.50
2018-12-21T22:23:05.388Z,95.15
2018-12-21T22:25:33.360Z,96.05
2018-12-21T22:28:01.278Z,88.27
2018-12-21T22:30:29.284Z,100.02
2018-12-21T22:32:57.376Z,94.15
2018-12-21T22:35:25.317Z,90.83
2018-12-21T22:37:53.374Z,86.02
2018-12-21T22:40:21.386Z,97.57
2018-12-21T22:42:49.311Z,95.12
2018-12-21T22:45:17.286Z,85.72
2018-12-21T22:47:45.312Z,90.03
2018-12-21T22:50:13.362Z,83.65
2018-12-21T22:52:41.342Z,85.38
2018-12-21T22:55:09.328Z,92.15
2018-12-21T22:57:37.242Z,101.22
2018-12-21T23:00:08.823Z,98.25
2018-12-21T23:02:36.845Z,97.05
2018-12-21T23:05:04.871Z,100.80
2018-12-21T23:07:32.783Z,100.65
2018-12-21T23:10:00.806Z,88.50
2018-12-21T23:12:28.781Z,87.62
2018-12-21T23:14:56.721Z,87.22
2018-12-21T23:17:24.736Z,80.72
2018-12-21T23:19:52.786Z,78.90
2018-12-21T23:22:20.806Z,83.60
2018-12-21T23:24:48.947Z,83.78
2018-12-21T23:27:17.199Z,83.40
2018-12-21T23:29:45.153Z,76.50
2018-12-21T23:32:13.136Z,86.55
2018-12-21T23:34:41.103Z,68.78
2018-12-21T23:37:09.025Z,65.32
2018-12-21T23:39:36.961Z,68.67
2018-12-21T23:42:04.916Z,68.70
2018-12-21T23:44:32.930Z,69.75
2018-12-21T23:47:00.875Z,66.90
2018-12-21T23:49:28.845Z,60.80
2018-12-21T23:51:56.774Z,59.10
2018-12-21T23:54:24.761Z,61.33
2018-12-21T23:56:52.720Z,57.15
2018-12-21T23:59:20.650Z,57.13
